createdAt,value
2018-12-06T00:03:20.433Z,5.50
2018-12-06T00:07:25.279Z,5.23
2018-12-06T00:11:30.090Z,5.03
2018-12-06T00:15:34.956Z,5.43
2018-12-06T00:19:39.829Z,5.10
2018-12-06T00:23:44.694Z,5.50
2018-12-06T00:27:49.582Z,4.63
2018-12-06T00:31:54.423Z,4.27
2018-12-06T00:35:59.316Z,5.17
2018-12-06T00:40:04.340Z,4.77
2018-12-06T00:44:09.146Z,4.93
2018-12-06T00:48:14.023Z,4.63
2018-12-06T00:52:18.841Z,4.73
2018-12-06T00:56:23.704Z,3.73
2018-12-06T01:00:28.548Z,4.07
2018-12-06T01:04:33.450Z,3.33
2018-12-06T01:08:38.291Z,3.57
2018-12-06T01:12:43.186Z,3.87
2018-12-06T01:16:47.997Z,3.60
2018-12-06T01:20:52.893Z,3.93
2018-12-06T01:24:57.733Z,3.90
2018-12-06T01:29:02.574Z,4.57
2018-12-06T01:33:07.437Z,4.27
2018-12-06T01:37:12.277Z,4.30
2018-12-06T01:41:17.138Z,4.67
2018-12-06T01:45:22.065Z,4.40
2018-12-06T01:49:26.855Z,4.77
2018-12-06T01:53:31.718Z,4.93
2018-12-06T01:57:36.558Z,4.60
2018-12-06T02:01:41.417Z,4.47
2018-12-06T02:05:46.308Z,4.70
2018-12-06T02:09:51.149Z,5.27
2018-12-06T02:13:56.000Z,5.13
2018-12-06T02:18:00.828Z,5.70
2018-12-06T02:22:05.692Z,5.67
2018-12-06T02:26:10.491Z,4.63
2018-12-06T02:30:15.336Z,5.83
2018-12-06T02:34:20.189Z,4.33
2018-12-06T02:38:25.113Z,5.00
2018-12-06T02:42:29.972Z,5.03
2018-12-06T02:46:34.817Z,4.93
2018-12-06T02:50:39.745Z,5.10
2018-12-06T02:54:44.629Z,4.20
2018-12-06T02:58:49.471Z,4.73
2018-12-06T03:02:54.369Z,4.67
2018-12-06T03:06:59.190Z,5.40
2018-12-06T03:11:03.995Z,4.40
2018-12-06T03:15:08.834Z,5.07
2018-12-06T03:19:13.732Z,4.80
2018-12-06T03:27:47.726Z,5.03
2018-12-06T03:31:52.554Z,5.10
2018-12-06T03:35:57.402Z,5.97
2018-12-06T03:40:09.803Z,5.37
2018-12-06T03:44:14.616Z,5.77
2018-12-06T03:48:19.451Z,6.77
2018-12-06T03:52:25.167Z,6.00
2018-12-06T03:56:30.012Z,5.43
2018-12-06T04:00:35.154Z,6.20
2018-12-06T04:04:40.005Z,5.83
2018-12-06T04:08:44.861Z,5.63
2018-12-06T04:12:49.782Z,4.93
2018-12-06T04:16:54.596Z,4.80
2018-12-06T04:20:59.461Z,4.70
2018-12-06T04:25:04.316Z,5.33
2018-12-06T04:29:26.913Z,5.07
2018-12-06T04:33:31.730Z,4.87
2018-12-06T04:37:36.587Z,5.37
2018-12-06T04:41:41.449Z,5.90
2018-12-06T04:45:46.277Z,6.90
2018-12-06T04:49:51.212Z,7.13
2018-12-06T04:53:56.018Z,7.07
2018-12-06T04:58:00.973Z,6.80
2018-12-06T05:02:24.729Z,7.37
2018-12-06T05:06:29.606Z,7.10
2018-12-06T05:10:34.476Z,7.20
2018-12-06T05:14:39.332Z,8.33
2018-12-06T05:18:44.224Z,7.40
2018-12-06T05:22:49.076Z,7.60
2018-12-06T05:26:53.929Z,7.70
2018-12-06T05:30:58.730Z,7.37
2018-12-06T05:35:03.597Z,6.73
2018-12-06T05:39:09.271Z,7.67
2018-12-06T05:43:14.112Z,7.63
2018-12-06T05:47:18.955Z,8.40
2018-12-06T05:51:23.796Z,8.50
2018-12-06T05:55:28.699Z,7.77
2018-12-06T05:59:33.576Z,9.00
2018-12-06T06:03:38.451Z,7.97
2018-12-06T06:07:43.380Z,7.97
2018-12-06T06:11:48.253Z,8.40
2018-12-06T06:15:53.064Z,7.63
2018-12-06T06:19:57.939Z,7.07
2018-12-06T06:24:02.782Z,8.70
2018-12-06T06:32:17.584Z,7.37
2018-12-06T06:36:22.433Z,7.30
2018-12-06T06:40:27.341Z,7.70
2018-12-06T06:44:32.254Z,6.73
2018-12-06T06:48:37.459Z,7.57
2018-12-06T06:52:42.456Z,6.47
2018-12-06T06:56:47.357Z,7.07
2018-12-06T07:00:52.212Z,6.33
2018-12-06T07:04:57.012Z,5.77
2018-12-06T07:09:01.896Z,5.60
2018-12-06T07:13:06.738Z,5.63
2018-12-06T07:17:11.595Z,5.27
2018-12-06T07:21:16.548Z,5.17
2018-12-06T07:25:21.650Z,5.33
2018-12-06T07:29:26.528Z,4.73
2018-12-06T07:33:31.425Z,4.73
2018-12-06T07:37:36.221Z,4.57
2018-12-06T07:41:41.075Z,4.63
2018-12-06T07:45:45.916Z,5.30
2018-12-06T07:49:50.904Z,4.23
2018-12-06T07:53:55.725Z,3.97
2018-12-06T07:58:00.529Z,5.10
2018-12-06T08:02:05.407Z,5.27
2018-12-06T08:06:10.285Z,4.63
2018-12-06T08:14:45.720Z,3.70
2018-12-06T08:18:50.544Z,3.80
2018-12-06T08:22:56.135Z,3.43
2018-12-06T08:27:01.044Z,3.30
2018-12-06T08:31:05.878Z,3.30
2018-12-06T08:35:10.730Z,3.93
2018-12-06T08:39:15.568Z,3.60
2018-12-06T08:43:20.367Z,3.70
2018-12-06T08:47:25.198Z,3.63
2018-12-06T08:51:30.122Z,3.70
2018-12-06T08:55:34.982Z,3.47
2018-12-06T08:59:39.812Z,4.10
2018-12-06T09:03:44.640Z,3.73
2018-12-06T09:07:49.579Z,3.83
2018-12-06T09:11:54.446Z,3.57
2018-12-06T09:15:59.294Z,3.33
2018-12-06T09:20:04.130Z,3.37
2018-12-06T09:24:08.955Z,3.70
2018-12-06T09:28:13.877Z,3.23
2018-12-06T09:32:18.751Z,3.30
2018-12-06T09:36:23.606Z,3.20
2018-12-06T09:40:28.407Z,3.83
2018-12-06T09:44:33.341Z,4.07
2018-12-06T09:48:38.160Z,3.57
2018-12-06T09:52:43.279Z,3.77
2018-12-06T10:01:37.463Z,3.40
2018-12-06T10:05:42.487Z,3.40
2018-12-06T10:09:47.362Z,3.83
2018-12-06T10:13:52.276Z,3.80
2018-12-06T10:17:57.295Z,3.70
2018-12-06T10:22:02.168Z,3.43
2018-12-06T10:26:07.019Z,3.87
2018-12-06T10:30:11.980Z,3.67
2018-12-06T10:39:12.217Z,3.97
2018-12-06T10:43:17.168Z,3.73
2018-12-06T10:47:22.087Z,3.83
2018-12-06T11:06:07.244Z,3.20
2018-12-06T11:10:12.379Z,3.40
2018-12-06T11:14:17.383Z,3.83
2018-12-06T11:18:22.299Z,3.40
2018-12-06T11:22:46.137Z,3.90
2018-12-06T11:26:51.087Z,3.73
2018-12-06T11:30:56.125Z,4.07
2018-12-06T11:35:01.094Z,4.43
2018-12-06T11:44:14.731Z,3.63
2018-12-06T11:48:26.678Z,3.70
2018-12-06T11:52:26.317Z,3.73
2018-12-06T11:56:30.994Z,3.70
2018-12-06T12:00:35.778Z,4.53
2018-12-06T12:04:40.484Z,4.63
2018-12-06T12:08:45.676Z,3.93
2018-12-06T12:12:50.381Z,3.87
2018-12-06T12:16:55.110Z,4.00
2018-12-06T12:20:59.858Z,4.20
2018-12-06T12:25:04.611Z,4.37
2018-12-06T12:29:28.370Z,3.80
2018-12-06T12:33:33.268Z,3.97
2018-12-06T12:37:38.168Z,4.00
2018-12-06T12:41:43.131Z,4.07
2018-12-06T12:45:48.241Z,4.10
2018-12-06T12:49:53.147Z,4.30
2018-12-06T12:53:58.004Z,4.17
2018-12-06T12:58:02.973Z,4.40
2018-12-06T13:02:07.918Z,4.30
2018-12-06T13:06:12.814Z,3.87
2018-12-06T13:10:17.721Z,4.20
2018-12-06T13:14:22.610Z,3.97
2018-12-06T13:18:27.489Z,4.03
2018-12-06T13:22:32.278Z,4.67
2018-12-06T13:26:37.297Z,4.50
2018-12-06T13:30:42.128Z,4.53
2018-12-06T13:34:47.075Z,4.70
2018-12-06T13:38:51.884Z,3.57
2018-12-06T13:42:57.154Z,4.40
2018-12-06T13:47:01.971Z,4.30
2018-12-06T13:51:06.869Z,4.53
2018-12-06T13:55:11.682Z,4.93
2018-12-06T13:59:16.525Z,4.60
2018-12-06T14:03:21.409Z,4.33
2018-12-06T14:07:26.330Z,4.37
2018-12-06T14:11:31.138Z,4.60
2018-12-06T14:15:35.993Z,4.30
2018-12-06T14:19:40.884Z,4.70
2018-12-06T14:23:45.701Z,4.73
2018-12-06T14:27:50.582Z,4.80
2018-12-06T14:31:55.863Z,4.83
2018-12-06T14:36:25.371Z,5.33
2018-12-06T14:40:30.322Z,4.47
2018-12-06T14:44:35.310Z,4.67
2018-12-06T14:48:40.203Z,4.97
2018-12-06T14:52:45.092Z,5.37
2018-12-06T14:56:50.068Z,5.23
2018-12-06T15:00:54.936Z,5.20
2018-12-06T15:04:59.794Z,4.77
2018-12-06T15:13:36.032Z,5.13
2018-12-06T15:17:40.965Z,4.83
2018-12-06T15:21:45.869Z,5.30
2018-12-06T15:25:50.722Z,5.47
2018-12-06T15:30:14.442Z,5.10
2018-12-06T15:34:19.384Z,5.40
2018-12-06T15:38:24.249Z,4.80
2018-12-06T15:42:29.084Z,5.80
2018-12-06T15:46:33.890Z,5.50
2018-12-06T15:50:38.838Z,4.90
2018-12-06T15:54:43.730Z,5.60
2018-12-06T15:58:48.599Z,5.37
2018-12-06T16:02:53.644Z,5.60
2018-12-06T16:06:58.555Z,5.70
2018-12-06T16:11:03.481Z,6.00
2018-12-06T16:15:09.121Z,6.53
2018-12-06T16:19:13.991Z,5.40
2018-12-06T16:23:19.136Z,5.33
2018-12-06T16:27:25.203Z,6.60
2018-12-06T16:31:30.055Z,5.80
2018-12-06T16:35:34.962Z,5.97
2018-12-06T16:39:39.875Z,5.97
2018-12-06T16:43:44.745Z,5.87
2018-12-06T16:48:08.510Z,7.00
2018-12-06T16:56:41.233Z,5.67
2018-12-06T17:00:46.158Z,6.30
2018-12-06T17:04:55.302Z,6.50
2018-12-06T17:09:00.224Z,6.20
2018-12-06T17:13:05.100Z,5.77
2018-12-06T17:17:10.088Z,6.37
2018-12-06T17:21:15.026Z,6.70
2018-12-06T17:25:19.889Z,6.60
2018-12-06T17:29:24.696Z,6.20
2018-12-06T17:33:29.562Z,7.07
2018-12-06T17:37:53.639Z,6.13
2018-12-06T17:42:18.748Z,6.23
2018-12-06T17:46:23.643Z,6.27
2018-12-06T17:50:29.108Z,6.63
2018-12-06T17:54:33.953Z,5.93
2018-12-06T17:58:38.823Z,6.00
2018-12-06T18:02:44.311Z,6.03
2018-12-06T18:06:49.237Z,6.10
2018-12-06T18:11:12.958Z,6.17
2018-12-06T18:15:19.014Z,5.73
2018-12-06T18:19:23.933Z,6.30
2018-12-06T18:23:29.273Z,6.57
2018-12-06T18:27:34.165Z,6.40
2018-12-06T18:31:39.055Z,5.90
2018-12-06T18:35:43.979Z,6.53
2018-12-06T18:39:48.985Z,6.40
2018-12-06T18:43:53.942Z,6.03
2018-12-06T18:47:58.776Z,6.50
2018-12-06T18:52:04.292Z,6.90
2018-12-06T18:56:09.399Z,6.50
2018-12-06T19:00:14.783Z,6.90
2018-12-06T19:04:19.787Z,6.77
2018-12-06T19:08:24.671Z,6.60
2018-12-06T19:12:29.521Z,7.63
2018-12-06T19:16:34.434Z,6.60
2018-12-06T19:20:39.264Z,6.40
2018-12-06T19:24:44.290Z,7.60
2018-12-06T19:28:49.141Z,7.10
2018-12-06T19:32:57.870Z,7.40
2018-12-06T19:37:01.048Z,7.60
2018-12-06T19:41:05.869Z,7.47
2018-12-06T19:45:10.753Z,8.13
2018-12-06T19:49:15.557Z,7.77
2018-12-06T19:53:23.058Z,8.70
2018-12-06T19:57:27.899Z,7.90
2018-12-06T20:01:51.682Z,8.13
2018-12-06T20:05:56.505Z,8.20
2018-12-06T20:10:01.465Z,8.43
2018-12-06T20:14:06.434Z,8.40
2018-12-06T20:18:11.361Z,8.90
2018-12-06T20:22:16.284Z,9.37
2018-12-06T20:26:21.232Z,8.20
2018-12-06T20:30:26.114Z,8.90
2018-12-06T20:34:31.060Z,9.57
2018-12-06T20:43:17.161Z,8.67
2018-12-06T20:47:22.068Z,9.40
2018-12-06T20:51:27.025Z,9.60
2018-12-06T20:55:31.860Z,10.27
2018-12-06T20:59:36.753Z,9.57
2018-12-06T21:03:41.588Z,10.47
2018-12-06T21:07:46.429Z,9.43
2018-12-06T21:11:51.277Z,9.93
2018-12-06T21:15:56.239Z,9.67
2018-12-06T21:20:01.023Z,8.90
2018-12-06T21:24:05.925Z,9.73
2018-12-06T21:28:10.808Z,9.20
2018-12-06T21:32:55.202Z,9.63
2018-12-06T21:37:01.196Z,9.27
2018-12-06T21:41:07.476Z,9.43
2018-12-06T21:45:12.448Z,9.10
2018-12-06T21:49:17.340Z,9.30
2018-12-06T21:53:23.707Z,9.43
2018-12-06T21:57:29.137Z,10.33
2018-12-06T22:01:34.010Z,9.27
2018-12-06T22:05:38.837Z,9.57
2018-12-06T22:09:43.776Z,9.33
2018-12-06T22:13:48.735Z,9.87
2018-12-06T22:18:12.437Z,10.23
2018-12-06T22:22:17.360Z,9.33
2018-12-06T22:26:22.333Z,9.37
2018-12-06T22:30:27.190Z,10.50
2018-12-06T22:34:32.079Z,10.10
2018-12-06T22:38:55.792Z,10.30
2018-12-06T22:43:00.697Z,10.43
2018-12-06T22:47:05.554Z,9.97
2018-12-06T22:51:10.722Z,10.53
2018-12-06T22:55:15.595Z,10.27
2018-12-06T22:59:20.457Z,11.10
2018-12-06T23:03:25.416Z,11.00
2018-12-06T23:07:30.300Z,10.17
2018-12-06T23:11:35.136Z,9.77
2018-12-06T23:15:39.994Z,10.27
2018-12-06T23:19:44.884Z,8.73
2018-12-06T23:23:49.748Z,10.63
2018-12-06T23:27:54.784Z,10.00
2018-12-06T23:31:59.696Z,9.67
2018-12-06T23:36:04.610Z,10.13
2018-12-06T23:40:09.487Z,9.73
2018-12-06T23:44:14.539Z,10.67
2018-12-06T23:48:19.389Z,10.20
2018-12-06T23:52:24.352Z,9.87
2018-12-06T23:56:29.263Z,10.10
